Time;durP1;ratioP1;P1;durP2;ratioP2;P2;SDS_P1;SDS_P2;PMS_P1;PMS_P2;Temp;Humidity;BMP_temperature;BMP_pressure;BME280_temperature;BME280_humidity;BME280_pressure;Samples;Min_cycle;Max_cycle;Signal;HPM_P1;HPM_P2
2021/12/03 00:01:29;;;;;;;16.20;7.93;;;;;;;1.45;95.56;96300.94;5046078;28;20052;-66
2021/12/03 00:03:57;;;;;;;18.20;8.32;;;;;;;1.32;96.62;96306.63;5027821;28;20053;-66
2021/12/03 00:06:23;;;;;;;19.73;7.78;;;;;;;1.22;97.67;96291.44;5026086;28;20050;-65
2021/12/03 00:08:50;;;;;;;20.00;8.18;;;;;;;0.33;97.88;96154.66;5026389;28;20054;-65
2021/12/03 00:11:17;;;;;;;17.17;7.43;;;;;;;1.26;97.83;96310.69;5026086;28;20063;-67
2021/12/03 00:13:44;;;;;;;16.73;7.97;;;;;;;1.39;97.33;96318.63;5026051;28;20067;-65
2021/12/03 00:16:13;;;;;;;21.88;8.50;;;;;;;1.38;97.88;96316.22;5041108;28;20049;-66
2021/12/03 00:18:40;;;;;;;20.27;7.20;;;;;;;1.37;97.37;96299.06;5026304;28;20077;-66
2021/12/03 00:21:08;;;;;;;14.50;5.25;;;;;;;0.84;96.78;96199.91;5025548;28;20054;-66
2021/12/03 00:23:36;;;;;;;11.63;4.75;;;;;;;1.42;98.02;96298.84;5026105;28;20050;-66
2021/12/03 00:26:04;;;;;;;15.18;6.05;;;;;;;1.58;97.55;96305.34;5025690;28;20060;-65
2021/12/03 00:28:32;;;;;;;15.38;6.68;;;;;;;1.64;97.35;96314.16;5026039;28;20065;-67
2021/12/03 00:31:00;;;;;;;24.60;9.23;;;;;;;1.60;97.24;96315.16;5025630;28;20053;-67
2021/12/03 00:33:28;;;;;;;21.50;9.23;;;;;;;1.55;97.88;96316.13;5040610;28;20061;-67
2021/12/03 00:35:56;;;;;;;22.35;10.35;;;;;;;1.62;97.36;96304.69;5025783;28;20053;-63
2021/12/03 00:38:23;;;;;;;26.48;11.98;;;;;;;1.69;96.78;96316.69;5025512;28;20051;-64
2021/12/03 00:40:51;;;;;;;26.17;11.10;;;;;;;1.76;96.58;96307.94;5040787;28;20084;-66
2021/12/03 00:43:18;;;;;;;16.02;7.32;;;;;;;1.58;96.66;96271.00;5025448;28;20064;-68
2021/12/03 00:45:45;;;;;;;23.67;8.57;;;;;;;1.82;96.11;96296.50;5025160;28;20060;-66
2021/12/03 00:48:12;;;;;;;15.68;6.50;;;;;;;1.79;95.97;96299.91;5023801;28;20053;-66
2021/12/03 00:50:39;;;;;;;17.65;7.15;;;;;;;1.55;94.95;96300.56;5040462;28;20053;-67
2021/12/03 00:53:06;;;;;;;10.82;4.03;;;;;;;1.49;95.10;96290.97;5025034;28;20121;-67
2021/12/03 00:55:33;;;;;;;9.35;4.32;;;;;;;0.24;95.49;96104.84;5025040;28;20049;-66
2021/12/03 00:58:01;;;;;;;9.13;4.10;;;;;;;1.45;96.46;96320.03;5024865;28;20511;-66
2021/12/03 01:00:30;;;;;;;9.85;4.20;;;;;;;1.47;97.27;96314.25;5023941;28;20053;-67
2021/12/03 01:03:00;;;;;;;11.77;5.45;;;;;;;1.24;96.72;96274.75;5035149;28;20056;-68
2021/12/03 01:05:27;;;;;;;15.55;6.47;;;;;;;1.35;96.67;96298.59;5044923;28;20447;-68
2021/12/03 01:07:55;;;;;;;22.48;7.53;;;;;;;1.41;96.09;96300.00;5044589;28;20052;-66
2021/12/03 01:10:23;;;;;;;14.88;6.95;;;;;;;1.04;96.62;96264.59;5060219;28;20048;-65
2021/12/03 01:12:51;;;;;;;21.30;7.80;;;;;;;1.43;96.10;96314.13;5060004;28;20072;-66
2021/12/03 01:15:22;;;;;;;22.83;9.43;;;;;;;1.46;96.20;96301.72;5044942;28;20057;-66
2021/12/03 01:17:50;;;;;;;36.28;15.88;;;;;;;1.36;95.52;96292.00;5043114;28;20438;-68
2021/12/03 01:20:17;;;;;;;23.70;12.68;;;;;;;1.02;95.71;96232.22;5059997;28;20051;-66
2021/12/03 01:22:46;;;;;;;26.63;11.65;;;;;;;1.45;95.07;96273.63;5044639;28;20386;-67
2021/12/03 01:25:15;;;;;;;22.60;10.52;;;;;;;1.44;95.09;96282.97;5059584;28;20052;-68
2021/12/03 01:27:42;;;;;;;22.73;8.68;;;;;;;1.44;95.45;96291.16;5044218;28;20539;-67
2021/12/03 01:30:11;;;;;;;24.88;9.18;;;;;;;1.44;96.27;96274.78;5044833;28;20056;-68
2021/12/03 01:32:38;;;;;;;22.95;10.10;;;;;;;1.47;96.45;96276.06;5059702;28;20061;-66
2021/12/03 01:35:07;;;;;;;24.70;10.13;;;;;;;1.50;96.39;96287.09;5044490;28;20067;-67
2021/12/03 01:37:34;;;;;;;26.02;9.77;;;;;;;1.63;95.74;96279.00;5044677;28;20053;-66
2021/12/03 01:40:01;;;;;;;23.20;9.90;;;;;;;0.12;95.87;96142.88;5043377;28;20063;-66
2021/12/03 01:42:28;;;;;;;17.40;7.40;;;;;;;-1.75;94.83;95813.38;5044861;28;20060;-66
2021/12/03 01:44:55;;;;;;;18.15;7.88;;;;;;;1.33;95.06;96300.03;5044451;28;20057;-66
2021/12/03 01:47:22;;;;;;;14.63;7.43;;;;;;;1.29;94.85;96280.81;5044480;28;20057;-67
2021/12/03 01:49:49;;;;;;;18.35;7.25;;;;;;;0.66;95.89;96199.22;5044595;28;20064;-67
2021/12/03 01:52:15;;;;;;;17.50;7.18;;;;;;;0.74;95.52;96198.38;5044384;28;20079;-66
2021/12/03 01:54:42;;;;;;;15.85;8.25;;;;;;;1.37;96.24;96298.25;5059616;28;20499;-67
2021/12/03 01:57:09;;;;;;;27.95;11.38;;;;;;;0.78;97.38;96215.66;5044439;28;20072;-66
2021/12/03 01:59:36;;;;;;;25.85;11.25;;;;;;;1.37;97.47;96288.16;5044432;28;20057;-67
2021/12/03 02:02:03;;;;;;;26.27;11.30;;;;;;;1.21;97.24;96246.22;5057750;28;20135;-67
2021/12/03 02:04:30;;;;;;;27.33;10.85;;;;;;;1.52;97.71;96278.56;5024870;28;20064;-68
2021/12/03 02:06:57;;;;;;;16.73;8.32;;;;;;;1.38;99.22;96272.56;5024778;28;20144;-66
2021/12/03 02:09:24;;;;;;;15.15;5.65;;;;;;;1.40;99.72;96271.13;5022840;28;20072;-68
2021/12/03 02:11:50;;;;;;;13.95;5.50;;;;;;;1.45;99.20;96268.19;5023231;28;20057;-66
2021/12/03 02:14:17;;;;;;;10.10;4.32;;;;;;;1.29;99.53;96253.56;5039370;28;20137;-67
2021/12/03 02:16:45;;;;;;;10.88;4.68;;;;;;;1.27;100.00;96255.81;5039316;28;20056;-67
2021/12/03 02:19:12;;;;;;;10.65;4.68;;;;;;;1.32;100.00;96280.16;5024337;28;20293;-68
2021/12/03 02:21:39;;;;;;;13.73;4.63;;;;;;;0.70;100.00;96174.81;5024446;28;20059;-65
2021/12/03 02:24:06;;;;;;;10.23;3.95;;;;;;;1.45;100.00;96272.88;5039083;28;20050;-67
2021/12/03 02:26:32;;;;;;;10.73;5.57;;;;;;;1.26;100.00;96246.03;5024372;28;20059;-67
2021/12/03 02:28:59;;;;;;;12.82;5.25;;;;;;;1.51;99.38;96266.88;5024048;28;20610;-67
2021/12/03 02:31:26;;;;;;;18.52;8.15;;;;;;;1.62;99.33;96266.47;5024323;28;20084;-66
2021/12/03 02:33:54;;;;;;;82.68;26.50;;;;;;;1.67;100.00;96278.00;5024247;28;20510;-67
2021/12/03 02:36:21;;;;;;;62.40;21.75;;;;;;;1.72;100.00;96268.81;5023909;28;20064;-67
2021/12/03 02:38:48;;;;;;;19.25;6.72;;;;;;;1.82;100.00;96260.25;5026051;28;20051;-67
2021/12/03 02:41:16;;;;;;;11.68;4.88;;;;;;;1.90;100.00;96251.97;5027857;28;20049;-66
2021/12/03 02:43:43;;;;;;;10.65;4.97;;;;;;;1.92;100.00;96257.09;5042859;28;20532;-66
2021/12/03 02:46:10;;;;;;;14.43;5.50;;;;;;;-0.87;98.84;95789.13;5027000;28;20049;-66
2021/12/03 02:48:38;;;;;;;14.63;7.47;;;;;;;2.01;98.03;96246.91;5027508;28;20175;-67
2021/12/03 02:51:06;;;;;;;10.93;6.15;;;;;;;2.13;95.16;96252.41;5027689;28;20045;-67
2021/12/03 02:53:34;;;;;;;15.35;6.30;;;;;;;2.10;93.22;96261.28;5027649;28;20071;-68
2021/12/03 02:56:01;;;;;;;13.82;6.25;;;;;;;2.09;92.75;96259.66;5028067;28;20049;-67
2021/12/03 02:58:28;;;;;;;13.35;6.10;;;;;;;1.96;93.47;96271.69;5027685;28;20443;-66
2021/12/03 03:00:56;;;;;;;13.05;6.00;;;;;;;1.90;94.60;96262.09;5027522;28;20057;-67
2021/12/03 03:03:23;;;;;;;10.75;5.63;;;;;;;1.62;94.75;96225.53;5038924;28;20061;-66
2021/12/03 03:05:58;;;;;;;11.18;5.93;;;;;;;1.86;94.30;96261.16;5047121;28;20134;-66
2021/12/03 03:08:25;;;;;;;14.00;5.95;;;;;;;1.58;94.48;96242.56;5062568;28;20053;-66
2021/12/03 03:10:54;;;;;;;16.08;6.57;;;;;;;1.72;95.48;96271.53;5046743;28;20061;-66
2021/12/03 03:13:21;;;;;;;12.13;5.50;;;;;;;1.81;95.98;96266.81;5062455;28;20075;-68
2021/12/03 03:15:48;;;;;;;14.75;6.95;;;;;;;1.87;95.65;96284.59;5046932;28;20067;-67
2021/12/03 03:18:18;;;;;;;19.75;7.70;;;;;;;1.87;95.55;96274.47;5045308;28;20053;-67
2021/12/03 03:20:48;;;;;;;15.45;7.13;;;;;;;1.02;96.20;96122.34;5047046;28;20114;-67
2021/12/03 03:23:16;;;;;;;13.88;7.10;;;;;;;1.12;95.51;96188.19;5061939;28;20083;-68
2021/12/03 03:25:44;;;;;;;26.70;10.63;;;;;;;2.00;94.90;96273.41;5062039;28;20083;-66
2021/12/03 03:28:13;;;;;;;23.08;9.35;;;;;;;1.99;95.57;96269.06;5046764;28;20053;-67
2021/12/03 03:30:43;;;;;;;22.25;8.90;;;;;;;1.95;95.43;96259.16;5046414;28;20053;-66
2021/12/03 03:33:13;;;;;;;15.70;7.22;;;;;;;1.95;96.35;96253.69;5047451;28;20123;-67
2021/12/03 03:35:40;;;;;;;13.25;5.20;;;;;;;1.25;96.14;96164.50;5046816;28;20049;-67
2021/12/03 03:38:07;;;;;;;13.55;5.38;;;;;;;1.93;96.36;96266.91;5046722;28;20141;-67
2021/12/03 03:40:34;;;;;;;14.30;6.38;;;;;;;1.95;95.74;96281.00;5061874;28;20060;-67
2021/12/03 03:43:04;;;;;;;23.25;9.68;;;;;;;1.98;95.35;96285.78;5061820;28;20053;-67
2021/12/03 03:45:32;;;;;;;31.35;10.18;;;;;;;1.13;97.42;96227.97;5046604;28;20052;-67
2021/12/03 03:48:00;;;;;;;29.13;11.50;;;;;;;1.47;99.55;96255.03;5061471;28;20471;-66
2021/12/03 03:50:27;;;;;;;28.17;10.35;;;;;;;1.22;99.02;96179.63;5046019;28;20192;-67
2021/12/03 03:52:56;;;;;;;27.63;8.30;;;;;;;1.85;98.45;96268.53;5045100;28;20075;-65
2021/12/03 03:55:23;;;;;;;25.27;10.77;;;;;;;1.73;96.99;96254.03;5046517;28;20075;-66
2021/12/03 03:57:52;;;;;;;26.98;11.98;;;;;;;1.86;97.27;96272.88;5046269;28;20049;-67
2021/12/03 04:00:23;;;;;;;35.28;12.95;;;;;;;1.93;97.49;96283.28;5046031;28;20053;-66
2021/12/03 04:02:50;;;;;;;30.35;15.13;;;;;;;1.62;96.58;96253.63;5037909;28;20431;-66
2021/12/03 04:05:20;;;;;;;31.60;13.93;;;;;;;1.95;96.31;96373.81;5024754;28;20055;-66
2021/12/03 04:07:47;;;;;;;25.08;11.40;;;;;;;1.51;95.95;96211.50;5024886;28;20439;-66
2021/12/03 04:10:13;;;;;;;23.35;9.48;;;;;;;2.04;95.58;96257.16;5024640;28;20057;-66
2021/12/03 04:12:41;;;;;;;18.63;8.88;;;;;;;2.01;95.31;96263.28;5024761;28;20053;-67
2021/12/03 04:15:11;;;;;;;24.55;10.38;;;;;;;1.96;96.08;96266.22;5041363;28;20431;-67
2021/12/03 04:17:37;;;;;;;22.85;10.60;;;;;;;1.97;95.88;96265.06;5026184;28;20057;-66
2021/12/03 04:20:07;;;;;;;24.40;9.60;;;;;;;2.05;95.49;96258.75;5024257;28;20064;-66
2021/12/03 04:22:34;;;;;;;27.90;12.00;;;;;;;2.09;95.74;96292.44;5025825;28;20060;-67
2021/12/03 04:25:04;;;;;;;30.52;12.23;;;;;;;2.08;95.79;96274.47;5025799;28;20053;-66
2021/12/03 04:27:31;;;;;;;37.70;17.17;;;;;;;0.96;95.80;96075.44;5026130;28;20061;-67
2021/12/03 04:29:58;;;;;;;33.08;13.85;;;;;;;2.15;95.20;96280.97;5025231;28;20073;-67
2021/12/03 04:32:25;;;;;;;28.85;11.57;;;;;;;1.49;95.38;96222.75;5024251;28;20061;-66
2021/12/03 04:34:53;;;;;;;25.15;11.57;;;;;;;1.20;95.84;96173.69;5025946;28;20420;-66
2021/12/03 04:37:21;;;;;;;27.73;11.23;;;;;;;1.99;95.22;96287.41;5025610;28;20076;-67
2021/12/03 04:39:47;;;;;;;30.45;12.30;;;;;;;2.01;95.62;96279.69;5025831;28;20428;-68
2021/12/03 04:42:14;;;;;;;27.23;12.75;;;;;;;0.76;95.07;96097.22;5040772;28;20063;-67
2021/12/03 04:44:41;;;;;;;29.75;12.40;;;;;;;2.02;94.64;96294.91;5025854;28;20045;-67
2021/12/03 04:47:08;;;;;;;31.67;13.48;;;;;;;2.00;94.04;96273.41;5025025;28;20065;-66
2021/12/03 04:49:35;;;;;;;28.60;11.80;;;;;;;1.82;92.96;96265.69;5025777;28;20083;-66
2021/12/03 04:52:02;;;;;;;28.65;11.63;;;;;;;2.08;94.15;96297.13;5024900;28;20059;-65
2021/12/03 04:54:29;;;;;;;27.42;11.32;;;;;;;2.03;94.95;96293.78;5025573;28;20053;-65
2021/12/03 04:56:56;;;;;;;25.40;10.90;;;;;;;1.85;96.14;96308.72;5024895;28;20057;-65
2021/12/03 04:59:24;;;;;;;36.42;17.77;;;;;;;1.92;96.40;96298.03;5024320;28;20440;-64
2021/12/03 05:01:54;;;;;;;31.45;15.85;;;;;;;1.92;96.37;96270.72;5024417;28;20050;-66
2021/12/03 05:04:21;;;;;;;32.95;20.80;;;;;;;1.73;96.49;96256.75;5026102;28;20056;-66
2021/12/03 05:07:05;;;;;;;25.58;12.07;;;;;;;2.19;96.57;96302.97;5040341;28;20049;-65
2021/12/03 05:09:32;;;;;;;22.27;10.55;;;;;;;1.27;96.10;96154.88;5025584;28;20057;-66
2021/12/03 05:12:00;;;;;;;24.23;10.70;;;;;;;2.17;96.72;96305.22;5024882;28;20075;-66
2021/12/03 05:14:27;;;;;;;40.33;17.95;;;;;;;1.91;97.94;96301.91;5025421;28;20054;-65
2021/12/03 05:16:55;;;;;;;42.30;19.15;;;;;;;2.18;95.80;96312.28;5021773;28;20050;-67
2021/12/03 05:19:21;;;;;;;35.22;13.02;;;;;;;1.53;98.35;96327.38;5023534;28;20049;-65
2021/12/03 05:21:48;;;;;;;31.27;11.82;;;;;;;1.06;99.00;96248.72;5023169;28;20058;-65
2021/12/03 05:24:16;;;;;;;29.20;12.38;;;;;;;1.58;98.10;96294.44;5025074;28;20053;-65
2021/12/03 05:26:45;;;;;;;20.30;8.50;;;;;;;1.62;97.29;96304.69;5024589;28;20053;-66
2021/12/03 05:29:13;;;;;;;15.68;6.80;;;;;;;1.47;96.81;96309.59;5024752;28;20054;-66
2021/12/03 05:31:39;;;;;;;15.18;6.53;;;;;;;1.12;98.92;96302.72;5024177;28;20045;-66
2021/12/03 05:34:26;;;;;;;13.10;6.30;;;;;;;1.17;98.21;96291.63;5025217;28;20166;-65
2021/12/03 05:36:53;;;;;;;17.42;6.32;;;;;;;1.44;98.72;96334.81;5022654;28;20517;-65
2021/12/03 05:39:20;;;;;;;15.80;7.57;;;;;;;1.16;98.37;96281.03;5039791;28;20507;-66
2021/12/03 05:41:46;;;;;;;17.20;8.95;;;;;;;1.61;98.16;96346.75;5024496;28;20435;-65
2021/12/03 05:44:13;;;;;;;71.13;22.52;;;;;;;1.63;98.11;96337.09;5039614;28;20053;-66
2021/12/03 05:46:40;;;;;;;93.40;33.97;;;;;;;1.81;97.56;96335.06;5022829;28;20072;-66
2021/12/03 05:49:07;;;;;;;68.70;27.35;;;;;;;1.82;97.13;96329.25;5023426;28;20053;-73
2021/12/03 05:51:34;;;;;;;65.53;27.25;;;;;;;1.45;98.22;96290.00;5023919;28;20064;-71
2021/12/03 05:54:01;;;;;;;81.78;35.50;;;;;;;1.89;98.59;96350.59;5024480;28;20068;-71
2021/12/03 05:56:28;;;;;;;63.40;26.80;;;;;;;1.31;98.54;96234.91;5024194;28;20053;-71
2021/12/03 05:58:59;;;;;;;75.50;28.85;;;;;;;1.87;98.59;96336.47;5023089;28;20085;-71
2021/12/03 06:01:25;;;;;;;64.95;28.17;;;;;;;1.21;98.12;96229.03;5024035;28;20060;-71
2021/12/03 06:03:52;;;;;;;68.13;27.27;;;;;;;2.03;98.30;96343.75;5040252;28;20060;-69
2021/12/03 06:06:19;;;;;;;51.50;19.50;;;;;;;2.04;98.26;96341.81;5044047;28;20228;-72
2021/12/03 06:08:46;;;;;;;41.92;17.67;;;;;;;2.08;98.54;96356.38;5043851;28;20053;-71
2021/12/03 06:11:13;;;;;;;41.83;16.30;;;;;;;1.88;99.57;96335.34;5044374;28;20048;-72
2021/12/03 06:13:39;;;;;;;40.47;16.33;;;;;;;1.96;99.28;96339.94;5046061;28;20057;-72
2021/12/03 06:16:08;;;;;;;36.85;15.13;;;;;;;2.19;98.55;96346.66;5048313;28;20056;-71
2021/12/03 06:18:35;;;;;;;32.42;14.85;;;;;;;2.22;97.37;96351.47;5046350;28;20049;-71
2021/12/03 06:21:05;;;;;;;38.67;15.13;;;;;;;2.30;96.79;96353.31;5048185;28;20092;-70
2021/12/03 06:23:32;;;;;;;47.40;21.48;;;;;;;2.45;95.16;96358.19;5046471;28;20057;-71
2021/12/03 06:26:00;;;;;;;44.67;20.67;;;;;;;2.20;92.86;96307.28;5048252;28;20048;-70
2021/12/03 06:28:29;;;;;;;53.83;24.85;;;;;;;2.32;93.18;96319.09;5062768;28;20500;-70
2021/12/03 06:30:56;;;;;;;68.53;31.73;;;;;;;2.40;92.52;96342.78;5061036;28;20059;-73
2021/12/03 06:33:23;;;;;;;48.85;23.42;;;;;;;2.40;92.87;96352.94;5041025;28;20048;-63
2021/12/03 06:35:51;;;;;;;41.53;22.40;;;;;;;1.60;92.64;96208.72;5045068;28;20063;-70
2021/12/03 06:38:19;;;;;;;47.63;22.73;;;;;;;2.01;93.00;96277.72;5035675;28;20667;-74
2021/12/03 06:40:47;;;;;;;49.90;25.05;;;;;;;2.24;92.67;96310.94;5046925;28;20083;-73
2021/12/03 06:43:14;;;;;;;65.63;31.23;;;;;;;1.52;93.24;96186.63;5038793;28;20053;-76
2021/12/03 06:45:42;;;;;;;87.28;37.13;;;;;;;2.28;94.03;96334.53;5026878;28;20658;-65
2021/12/03 06:48:09;;;;;;;75.57;35.20;;;;;;;2.82;94.05;96370.84;5024316;28;20064;-63
2021/12/03 06:50:37;;;;;;;55.85;27.42;;;;;;;3.02;93.29;96370.78;5018734;28;20049;-71
2021/12/03 06:53:07;;;;;;;45.63;20.95;;;;;;;1.94;92.49;96239.25;5025125;28;20586;-72
2021/12/03 06:55:45;;;;;;;46.47;19.80;;;;;;;1.55;95.47;96229.59;5021779;28;20057;-63
2021/12/03 06:58:14;;;;;;;37.92;16.40;;;;;;;2.96;93.89;96393.22;5027192;28;20053;-62
2021/12/03 07:00:43;;;;;;;32.85;14.98;;;;;;;3.04;92.91;96401.34;5026239;28;20053;-61
2021/12/03 07:03:10;;;;;;;14.57;7.78;;;;;;;2.05;92.29;96280.59;5026736;28;20053;-63
2021/12/03 07:05:37;;;;;;;14.60;7.03;;;;;;;2.49;92.73;96318.09;5027119;28;20065;-62
2021/12/03 07:08:04;;;;;;;14.35;7.53;;;;;;;2.64;92.01;96350.28;5026234;28;20041;-66
2021/12/03 07:10:31;;;;;;;14.82;7.15;;;;;;;3.03;91.08;96319.63;5042289;28;20071;-73
2021/12/03 07:12:58;;;;;;;25.95;11.45;;;;;;;3.03;90.80;96308.69;5026030;28;20132;-63
2021/12/03 07:15:25;;;;;;;37.95;17.38;;;;;;;3.54;90.09;96365.50;5026411;28;20045;-62
2021/12/03 07:17:52;;;;;;;34.97;15.10;;;;;;;3.31;88.79;96295.94;5025881;28;20042;-64
2021/12/03 07:20:22;;;;;;;47.05;20.48;;;;;;;3.51;88.42;96343.50;5027231;28;20041;-65
2021/12/03 07:22:50;;;;;;;43.00;18.63;;;;;;;4.01;87.09;96402.25;5026646;28;20088;-67
2021/12/03 07:25:17;;;;;;;45.55;20.08;;;;;;;3.81;87.70;96353.84;5023836;28;20136;-63
2021/12/03 07:27:44;;;;;;;69.15;34.30;;;;;;;4.04;85.73;96368.69;5026548;28;20609;-75
2021/12/03 07:30:15;;;;;;;62.17;30.10;;;;;;;4.52;84.92;96385.00;5026636;28;20061;-63
2021/12/03 07:32:42;;;;;;;81.55;38.83;;;;;;;4.65;85.46;96400.28;5026054;28;20046;-61
2021/12/03 07:35:10;;;;;;;131.95;58.15;;;;;;;4.03;85.53;96300.53;5041498;28;20079;-63
2021/12/03 07:37:38;;;;;;;139.75;60.45;;;;;;;4.63;85.80;96342.22;5025805;28;20398;-62
2021/12/03 07:40:07;;;;;;;121.60;55.20;;;;;;;4.27;86.90;96284.78;5025096;28;20046;-73
2021/12/03 07:42:35;;;;;;;100.55;46.30;;;;;;;4.45;84.33;96302.56;5023169;28;20516;-62
2021/12/03 07:45:06;;;;;;;86.82;42.08;;;;;;;4.13;87.30;96322.75;5024499;28;20527;-65
2021/12/03 07:47:32;;;;;;;83.03;39.15;;;;;;;4.33;89.75;96381.31;5024888;28;20069;-68
2021/12/03 07:49:59;;;;;;;94.00;41.90;;;;;;;4.78;90.17;96397.47;5024105;28;20095;-73
2021/12/03 07:52:26;;;;;;;89.32;40.90;;;;;;;5.26;86.28;96463.16;5025306;28;20504;-64
2021/12/03 07:54:53;;;;;;;86.35;39.63;;;;;;;5.47;86.63;96411.56;5024052;28;20427;-62
2021/12/03 07:57:23;;;;;;;87.63;41.95;;;;;;;5.74;87.19;96397.75;5025347;28;20080;-66
2021/12/03 07:59:53;;;;;;;95.18;44.92;;;;;;;6.02;85.61;96403.16;5022764;28;20041;-77
2021/12/03 08:02:20;;;;;;;100.10;46.47;;;;;;;5.93;83.92;96367.63;5041125;28;20053;-63
2021/12/03 08:04:47;;;;;;;108.03;51.33;;;;;;;6.45;83.86;96399.44;5026176;28;20049;-68
2021/12/03 08:07:13;;;;;;;156.25;61.88;;;;;;;6.10;81.30;96319.72;5025657;28;20564;-75
2021/12/03 08:09:44;;;;;;;139.13;57.08;;;;;;;6.50;80.68;96347.69;5026424;28;20057;-59
2021/12/03 08:12:11;;;;;;;123.30;54.47;;;;;;;6.75;79.21;96357.25;5026111;28;20497;-71
2021/12/03 08:14:38;;;;;;;90.05;37.75;;;;;;;6.57;79.10;96312.06;5025796;28;20053;-73
2021/12/03 08:17:05;;;;;;;75.45;33.33;;;;;;;6.66;79.31;96326.41;5040450;28;20060;-73
2021/12/03 08:19:33;;;;;;;109.00;49.20;;;;;;;7.14;78.87;96383.63;5025919;28;20049;-65
2021/12/03 08:21:59;;;;;;;109.32;48.03;;;;;;;4.79;77.39;96006.84;5025005;28;20045;-62
2021/12/03 08:24:26;;;;;;;110.60;47.33;;;;;;;7.15;77.26;96363.16;5025099;28;20053;-65
2021/12/03 08:26:53;;;;;;;91.10;37.72;;;;;;;6.25;75.82;96200.63;5022983;28;20140;-69
2021/12/03 08:29:20;;;;;;;72.88;33.17;;;;;;;5.84;77.20;96179.34;5024228;28;20054;-70
2021/12/03 08:31:46;;;;;;;47.92;24.85;;;;;;;7.66;78.10;96400.31;5024374;28;20443;-63
2021/12/03 08:34:13;;;;;;;52.90;21.75;;;;;;;7.84;77.12;96388.81;5025035;28;20124;-71
2021/12/03 08:36:40;;;;;;;44.92;23.10;;;;;;;7.60;77.71;96330.13;5024255;28;20500;-62
2021/12/03 08:39:07;;;;;;;57.33;26.35;;;;;;;7.88;77.62;96356.56;5022644;28;20057;-68
2021/12/03 08:41:34;;;;;;;67.05;29.95;;;;;;;6.52;76.44;96114.28;5024721;28;20058;-72
2021/12/03 08:44:03;;;;;;;107.38;43.45;;;;;;;8.71;76.31;96383.84;5020270;28;20357;-67
2021/12/03 08:46:33;;;;;;;95.75;44.08;;;;;;;8.07;74.75;96279.25;5020774;28;20048;-69
2021/12/03 08:49:16;;;;;;;105.68;45.90;;;;;;;8.63;73.75;96335.25;5021770;28;20057;-63
2021/12/03 08:56:56;;;;;;;116.43;55.03;;;;;;;9.32;72.27;96375.13;5020538;28;20363;-65
2021/12/03 08:59:23;;;;;;;132.75;51.35;;;;;;;8.99;72.27;96337.25;5023395;28;20476;-65
2021/12/03 09:01:50;;;;;;;165.25;60.00;;;;;;;8.95;72.84;96319.84;5022392;28;20452;-68
2021/12/03 09:04:17;;;;;;;91.70;42.33;;;;;;;7.96;72.98;96196.38;5023557;28;20057;-74
2021/12/03 09:06:44;;;;;;;101.82;44.20;;;;;;;7.50;72.96;96148.91;5024273;28;20062;-68
2021/12/03 09:09:11;;;;;;;174.70;65.88;;;;;;;8.86;72.64;96344.19;5024072;28;20415;-76
2021/12/03 09:11:38;;;;;;;105.05;46.47;;;;;;;6.25;74.27;95957.84;5023837;28;20132;-65
2021/12/03 09:19:51;;;;;;;78.63;36.33;;;;;;;8.64;71.01;96191.31;5023297;28;20092;-68
2021/12/03 09:25:06;;;;;;;109.38;47.60;;;;;;;8.04;71.91;96078.69;5024235;28;20049;-70
2021/12/03 09:27:32;;;;;;;102.35;44.53;;;;;;;9.79;71.33;96339.22;5018595;28;20057;-67
2021/12/03 09:29:59;;;;;;;92.18;38.83;;;;;;;9.60;72.19;96348.56;5006914;28;20053;-66
2021/12/03 09:32:31;;;;;;;72.18;34.08;;;;;;;9.88;71.51;96343.28;5023181;28;20045;-70
2021/12/03 09:34:58;;;;;;;60.75;28.67;;;;;;;9.54;72.27;96324.41;5020152;28;20084;-65
2021/12/03 09:37:26;;;;;;;51.10;23.92;;;;;;;8.71;76.08;96295.50;5023289;28;20562;-67
2021/12/03 09:39:53;;;;;;;63.08;28.15;;;;;;;8.95;75.33;96308.78;5014688;28;20536;-75
2021/12/03 09:42:20;;;;;;;43.97;22.48;;;;;;;9.40;74.65;96324.25;5023255;28;20136;-61
2021/12/03 09:44:50;;;;;;;40.85;19.30;;;;;;;9.34;76.52;96318.31;5023519;28;20053;-63
2021/12/03 09:47:19;;;;;;;35.83;17.52;;;;;;;9.51;75.88;96323.19;5022760;28;20136;-65
2021/12/03 09:49:53;;;;;;;44.63;22.08;;;;;;;9.53;76.08;96314.53;5024398;28;20505;-62
2021/12/03 09:52:30;;;;;;;36.70;17.70;;;;;;;9.85;74.30;96313.59;5024150;28;20106;-64
2021/12/03 09:55:01;;;;;;;36.88;17.48;;;;;;;10.07;73.52;96307.09;5021564;28;20045;-70
2021/12/03 10:19:02;;;;;;;10.25;5.45;;;;;;;10.08;70.10;96317.00;5023637;28;20124;-62
2021/12/03 10:24:53;;;;;;;16.52;6.82;;;;;;;9.60;72.80;96259.28;5012187;28;20226;-71
2021/12/03 10:57:25;;;;;;;32.22;17.08;;;;;;;10.49;72.63;96285.22;5014013;28;20069;-66
2021/12/03 11:54:13;;;;;;;17.30;7.93;;;;;;;11.20;68.46;96252.19;5017535;28;20401;-65
2021/12/03 14:20:35;;;;;;;143.65;59.17;;;;;;;9.42;81.49;96209.38;5016724;28;20060;-67
2021/12/03 14:43:09;;;;;;;99.10;44.17;;;;;;;9.09;83.09;96173.59;5027162;28;20052;-67
2021/12/03 14:56:20;;;;;;;80.22;35.65;;;;;;;8.49;85.67;96152.88;5021693;28;20439;-68
2021/12/03 14:59:06;;;;;;;107.93;45.78;;;;;;;7.93;88.42;96105.34;5021466;28;20421;-69
2021/12/03 15:09:45;;;;;;;56.75;28.67;;;;;;;8.28;90.97;96194.06;5041671;28;20056;-70
2021/12/03 15:28:15;;;;;;;175.27;82.00;;;;;;;7.41;93.89;96128.28;5040875;28;20049;-69
2021/12/03 15:38:39;;;;;;;277.88;113.28;;;;;;;7.84;95.68;96234.41;5040884;28;20060;-69
2021/12/03 16:08:16;;;;;;;61.47;29.38;;;;;;;7.47;95.56;96215.78;5027416;28;20057;-68
2021/12/03 16:13:24;;;;;;;98.95;41.92;;;;;;;7.57;96.03;96248.19;5026874;28;20057;-68
2021/12/03 16:24:05;;;;;;;25.50;11.77;;;;;;;6.95;98.89;96276.25;5026677;28;20485;-68
2021/12/03 16:53:38;;;;;;;130.10;58.40;;;;;;;6.96;100.00;96283.34;5026460;28;20061;-70
2021/12/03 16:56:19;;;;;;;139.90;62.53;;;;;;;6.76;100.00;96268.03;5024725;28;20547;-68
2021/12/03 16:58:46;;;;;;;139.32;61.33;;;;;;;6.60;100.00;96231.56;5026287;28;20069;-68
2021/12/03 17:03:58;;;;;;;102.60;49.75;;;;;;;7.11;99.11;96285.19;5025381;28;20495;-69
2021/12/03 17:55:26;;;;;;;69.50;37.47;;;;;;;7.10;100.00;96322.16;5024949;28;20049;-67
2021/12/03 17:58:01;;;;;;;72.57;38.05;;;;;;;7.35;98.63;96345.44;5024880;28;20064;-67
2021/12/03 18:03:29;;;;;;;120.50;55.42;;;;;;;7.19;96.65;96314.44;5024650;28;20057;-67
2021/12/03 18:06:07;;;;;;;125.07;54.97;;;;;;;7.33;96.65;96353.25;5024537;28;20053;-68
2021/12/03 18:51:48;;;;;;;181.23;73.25;;;;;;;7.57;94.73;96343.84;5024376;28;20060;-67
2021/12/03 18:56:55;;;;;;;178.25;78.68;;;;;;;7.52;95.05;96344.94;5023957;28;20061;-67
2021/12/03 18:59:26;;;;;;;173.38;77.95;;;;;;;7.55;95.97;96343.41;5024602;28;20142;-67
2021/12/03 19:01:53;;;;;;;147.27;66.97;;;;;;;7.56;95.31;96345.81;5023762;28;20481;-66
2021/12/03 19:04:32;;;;;;;146.68;65.90;;;;;;;7.56;95.79;96334.78;5024408;28;20057;-67
2021/12/03 19:07:16;;;;;;;158.82;70.70;;;;;;;7.60;95.92;96351.38;5024072;28;20132;-67
2021/12/03 19:09:51;;;;;;;115.07;49.25;;;;;;;6.90;96.44;96251.78;5024603;28;20132;-68
2021/12/03 19:12:23;;;;;;;69.57;30.80;;;;;;;7.60;96.13;96340.38;5024718;28;20045;-68
2021/12/03 19:14:53;;;;;;;76.38;34.55;;;;;;;7.60;96.13;96352.16;5024405;28;20118;-67
2021/12/03 19:17:22;;;;;;;62.33;28.00;;;;;;;7.26;96.09;96316.53;5023799;28;20505;-67
2021/12/03 19:19:53;;;;;;;39.92;20.10;;;;;;;7.40;98.03;96363.59;5023581;28;20592;-67
2021/12/03 19:22:22;;;;;;;46.58;23.20;;;;;;;7.50;97.95;96363.81;5023570;28;20132;-65
2021/12/03 19:24:50;;;;;;;36.72;17.88;;;;;;;7.39;98.88;96357.31;5022512;28;20475;-65
2021/12/03 19:27:18;;;;;;;45.97;18.73;;;;;;;7.34;99.53;96354.88;5027705;28;20111;-67
2021/12/03 19:29:45;;;;;;;36.22;17.85;;;;;;;7.32;99.81;96335.16;5025955;28;20097;-67
2021/12/03 19:32:12;;;;;;;43.35;18.55;;;;;;;7.34;100.00;96365.88;5027401;28;20513;-67
2021/12/03 19:34:39;;;;;;;47.10;18.98;;;;;;;7.27;100.00;96365.75;5026134;28;20107;-67
2021/12/03 19:37:06;;;;;;;42.28;19.20;;;;;;;7.26;100.00;96341.31;5027235;28;20522;-68
2021/12/03 19:39:36;;;;;;;45.00;20.63;;;;;;;7.33;100.00;96364.28;5027392;28;20053;-69
2021/12/03 19:42:15;;;;;;;65.35;28.85;;;;;;;6.99;100.00;96293.63;5027223;28;20058;-68
2021/12/03 19:47:15;;;;;;;66.90;28.37;;;;;;;4.07;99.70;95814.53;5027215;28;20061;-68
2021/12/03 19:52:19;;;;;;;49.55;24.27;;;;;;;7.62;100.00;96382.09;5027027;28;20627;-68